createdAt,value
2023-03-22T00:02:49.891Z,35.77
2023-03-22T00:06:50.077Z,36.92
2023-03-22T00:10:50.102Z,35.98
2023-03-22T00:14:50.255Z,35.46
2023-03-22T00:18:50.376Z,35.88
2023-03-22T00:22:50.515Z,33.54
2023-03-22T00:26:50.830Z,35.24
2023-03-22T00:30:50.806Z,36.10
2023-03-22T00:34:50.965Z,32.47
2023-03-22T00:38:51.102Z,32.31
2023-03-22T00:42:51.255Z,38.29
2023-03-22T00:46:51.410Z,34.07
2023-03-22T00:50:51.572Z,33.54
2023-03-22T00:54:51.482Z,35.68
2023-03-22T00:58:51.386Z,34.70
2023-03-22T01:02:51.271Z,32.53
2023-03-22T01:06:51.175Z,32.25
2023-03-22T01:10:51.077Z,34.88
2023-03-22T01:14:51.034Z,34.25
2023-03-22T01:18:50.886Z,34.84
2023-03-22T01:22:51.221Z,37.04
2023-03-22T01:26:50.687Z,35.62
2023-03-22T01:30:50.592Z,33.77
2023-03-22T01:34:50.458Z,34.16
2023-03-22T01:38:50.419Z,32.76
2023-03-22T01:42:50.498Z,31.87
2023-03-22T01:46:50.405Z,34.71
2023-03-22T01:50:50.291Z,34.06
2023-03-22T01:54:50.255Z,31.92
2023-03-22T01:58:50.049Z,33.55
2023-03-22T02:02:49.945Z,32.73
2023-03-22T02:06:49.813Z,33.91
2023-03-22T02:10:49.714Z,30.01
2023-03-22T02:14:49.604Z,32.76
2023-03-22T02:18:49.509Z,30.49
2023-03-22T02:22:49.407Z,30.68
2023-03-22T02:26:49.295Z,29.67
2023-03-22T02:30:49.230Z,32.13
2023-03-22T02:34:49.226Z,34.11
2023-03-22T02:38:49.126Z,27.43
2023-03-22T02:42:49.015Z,30.51
2023-03-22T02:46:48.926Z,30.14
2023-03-22T02:50:48.795Z,30.57
2023-03-22T02:54:48.695Z,29.33
2023-03-22T02:58:48.559Z,28.60
2023-03-22T03:02:48.756Z,28.62
2023-03-22T03:06:48.332Z,29.55
2023-03-22T03:10:48.743Z,26.54
2023-03-22T03:14:48.055Z,25.86
2023-03-22T03:18:48.126Z,28.20
2023-03-22T03:22:48.245Z,28.61
2023-03-22T03:26:48.358Z,27.42
2023-03-22T03:30:48.462Z,27.77
2023-03-22T03:34:48.573Z,26.31
2023-03-22T03:38:48.686Z,28.91
2023-03-22T03:42:48.804Z,28.41
2023-03-22T03:46:48.922Z,31.52
2023-03-22T03:50:49.048Z,29.67
2023-03-22T03:54:49.169Z,27.99
2023-03-22T03:58:49.772Z,26.39
2023-03-22T04:02:49.403Z,26.85
2023-03-22T04:06:49.496Z,29.20
2023-03-22T04:10:49.374Z,27.26
2023-03-22T04:14:49.237Z,27.21
2023-03-22T04:18:49.121Z,28.59
2023-03-22T04:22:48.982Z,27.05
2023-03-22T04:26:48.851Z,30.74
2023-03-22T04:30:48.733Z,26.81
2023-03-22T04:34:48.605Z,26.72
2023-03-22T04:38:48.482Z,27.83
2023-03-22T04:42:48.369Z,29.74
2023-03-22T04:46:48.255Z,27.80
2023-03-22T04:50:48.278Z,28.63
2023-03-22T04:54:48.419Z,28.15
2023-03-22T04:58:48.550Z,25.00
2023-03-22T05:02:48.484Z,28.30
2023-03-22T05:06:48.791Z,26.10
2023-03-22T05:10:48.153Z,29.79
2023-03-22T05:14:48.036Z,28.86
2023-03-22T05:18:47.870Z,29.27
2023-03-22T05:22:47.738Z,27.39
2023-03-22T05:26:47.590Z,28.17
2023-03-22T05:30:47.460Z,27.44
2023-03-22T05:34:47.331Z,28.61
2023-03-22T05:38:47.341Z,28.88
2023-03-22T05:42:47.366Z,29.81
2023-03-22T05:46:47.426Z,26.44
2023-03-22T05:50:47.471Z,26.36
2023-03-22T05:54:47.524Z,28.62
2023-03-22T05:58:47.638Z,25.74
2023-03-22T06:02:47.864Z,26.38
2023-03-22T06:06:47.907Z,28.13
2023-03-22T06:10:48.005Z,29.16
2023-03-22T06:14:48.123Z,28.16
2023-03-22T06:18:48.243Z,25.87
2023-03-22T06:22:48.394Z,29.55
2023-03-22T06:26:48.508Z,28.97
2023-03-22T06:30:48.650Z,28.48
2023-03-22T06:34:48.699Z,25.59
2023-03-22T06:38:48.800Z,27.12
2023-03-22T06:42:48.907Z,26.08
2023-03-22T06:46:49.016Z,27.52
2023-03-22T06:50:49.129Z,26.18
2023-03-22T06:54:49.212Z,26.42
2023-03-22T06:58:49.353Z,27.07
2023-03-22T07:02:51.517Z,26.91
2023-03-22T07:06:49.289Z,27.26
2023-03-22T07:10:49.180Z,28.58
2023-03-22T07:14:49.052Z,26.75
2023-03-22T07:18:48.921Z,25.26
2023-03-22T07:22:48.804Z,25.59
2023-03-22T07:26:48.702Z,27.37
2023-03-22T07:30:48.589Z,27.43
2023-03-22T07:34:48.859Z,26.54
2023-03-22T07:38:48.367Z,25.31
2023-03-22T07:42:48.278Z,28.72
2023-03-22T07:46:48.425Z,27.55
2023-03-22T07:50:48.025Z,27.13
2023-03-22T07:54:48.050Z,26.07
2023-03-22T07:58:48.234Z,27.66
2023-03-22T08:02:48.251Z,26.40
2023-03-22T08:06:48.291Z,28.72
2023-03-22T08:10:48.377Z,28.54
2023-03-22T08:14:48.460Z,27.14
2023-03-22T08:18:49.292Z,29.20
2023-03-22T08:22:48.632Z,25.50
2023-03-22T08:26:48.713Z,27.24
2023-03-22T08:30:48.789Z,27.10
2023-03-22T08:34:48.849Z,27.70
2023-03-22T08:38:48.893Z,27.17
2023-03-22T08:42:48.947Z,28.08
2023-03-22T08:46:48.994Z,28.30
2023-03-22T08:50:49.041Z,26.85
2023-03-22T08:54:49.091Z,27.25
2023-03-22T08:58:49.118Z,27.48
2023-03-22T09:02:49.149Z,26.32
2023-03-22T09:06:49.152Z,26.53
2023-03-22T09:10:49.175Z,26.84
2023-03-22T09:14:49.206Z,27.63
2023-03-22T09:18:49.229Z,27.28
2023-03-22T09:22:49.265Z,26.33
2023-03-22T09:26:50.807Z,27.17
2023-03-22T09:30:49.298Z,26.31
2023-03-22T09:34:49.282Z,26.12
2023-03-22T09:38:49.367Z,25.43
2023-03-22T09:42:49.304Z,25.46
2023-03-22T09:46:49.321Z,28.44
2023-03-22T09:50:49.400Z,27.94
2023-03-22T09:54:52.218Z,27.43
2023-03-22T09:58:49.276Z,29.46
2023-03-22T10:02:49.085Z,27.52
2023-03-22T10:06:48.982Z,25.34
2023-03-22T10:10:48.780Z,27.16
2023-03-22T10:14:48.646Z,26.27
2023-03-22T10:18:48.526Z,25.58
2023-03-22T10:22:48.402Z,26.92
2023-03-22T10:26:48.238Z,26.70
2023-03-22T10:30:48.077Z,25.92
2023-03-22T10:34:47.935Z,27.11
2023-03-22T10:38:47.867Z,26.65
2023-03-22T10:42:47.634Z,26.97
2023-03-22T10:46:47.540Z,25.85
2023-03-22T10:50:47.247Z,27.76
2023-03-22T10:54:47.170Z,26.56
2023-03-22T10:58:47.112Z,26.42
2023-03-22T11:02:47.061Z,26.92
2023-03-22T11:06:46.974Z,27.58
2023-03-22T11:10:46.952Z,28.17
2023-03-22T11:14:46.877Z,25.90
2023-03-22T11:18:46.903Z,27.72
2023-03-22T11:22:46.757Z,26.34
2023-03-22T11:26:46.737Z,26.00
2023-03-22T11:30:46.692Z,25.93
2023-03-22T11:34:46.659Z,26.49
2023-03-22T11:38:48.262Z,27.62
2023-03-22T11:42:46.600Z,26.88
2023-03-22T11:46:46.565Z,26.34
2023-03-22T11:50:46.511Z,28.29
2023-03-22T11:54:46.479Z,27.27
2023-03-22T11:58:46.416Z,26.19
2023-03-22T12:02:46.616Z,26.26
2023-03-22T12:06:46.320Z,26.97
2023-03-22T12:10:46.269Z,27.79
2023-03-22T12:14:46.217Z,27.05
2023-03-22T12:18:46.166Z,27.25
2023-03-22T12:22:46.128Z,26.98
2023-03-22T12:26:46.070Z,26.74
2023-03-22T12:30:46.063Z,25.49
2023-03-22T12:34:45.940Z,26.05
2023-03-22T12:38:45.874Z,26.88
2023-03-22T12:42:51.693Z,26.82
2023-03-22T12:46:46.750Z,27.76
2023-03-22T12:50:45.516Z,27.75
2023-03-22T12:54:45.390Z,27.32
2023-03-22T12:58:45.459Z,27.92
2023-03-22T13:02:45.163Z,27.91
2023-03-22T13:06:44.986Z,27.11
2023-03-22T13:10:44.843Z,27.74
2023-03-22T13:14:44.739Z,28.00
2023-03-22T13:18:44.689Z,28.42
2023-03-22T13:22:44.635Z,27.93
2023-03-22T13:26:44.565Z,27.86
2023-03-22T13:30:44.499Z,30.40
2023-03-22T13:34:44.427Z,28.56
2023-03-22T13:38:44.335Z,29.85
2023-03-22T13:42:44.281Z,28.70
2023-03-22T13:46:44.259Z,30.31
2023-03-22T13:50:44.147Z,31.83
2023-03-22T13:54:44.086Z,31.02
2023-03-22T13:58:44.012Z,31.31
2023-03-22T14:02:44.044Z,30.94
2023-03-22T14:06:43.882Z,31.85
2023-03-22T14:10:44.140Z,32.08
2023-03-22T14:14:44.005Z,31.58
2023-03-22T14:18:51.243Z,32.44
2023-03-22T14:47:44.261Z,25.00
2023-03-22T14:51:44.293Z,25.46
2023-03-22T14:55:44.339Z,25.77
2023-03-22T14:59:44.398Z,26.40
2023-03-22T15:03:44.451Z,26.19
2023-03-22T15:07:44.511Z,27.86
2023-03-22T15:11:44.572Z,26.04
2023-03-22T15:15:44.616Z,27.00
2023-03-22T15:19:44.645Z,26.96
2023-03-22T15:23:44.955Z,28.73
2023-03-22T15:27:45.095Z,28.03
2023-03-22T15:31:45.111Z,29.12
2023-03-22T15:35:45.458Z,28.41
2023-03-22T15:39:45.201Z,28.50
2023-03-22T15:43:45.266Z,29.62
2023-03-22T15:47:45.326Z,29.21
2023-03-22T15:51:45.413Z,28.97
2023-03-22T15:55:45.442Z,28.87
2023-03-22T15:59:45.485Z,28.70
2023-03-22T16:03:45.621Z,30.58
2023-03-22T16:07:45.598Z,28.56
2023-03-22T16:11:45.640Z,29.38
2023-03-22T16:15:45.701Z,30.07
2023-03-22T16:19:45.738Z,29.25
2023-03-22T16:23:45.787Z,30.35
2023-03-22T16:27:45.846Z,31.90
2023-03-22T16:31:51.087Z,30.38
2023-03-22T16:35:47.002Z,31.84
2023-03-22T16:39:46.013Z,32.54
2023-03-22T16:43:46.071Z,33.59
2023-03-22T16:47:46.142Z,33.48
2023-03-22T16:51:46.203Z,32.90
2023-03-22T16:55:46.252Z,35.44
2023-03-22T16:59:46.329Z,35.08
2023-03-22T17:03:46.367Z,33.55
2023-03-22T17:07:46.421Z,35.71
2023-03-22T17:11:46.482Z,35.25
2023-03-22T17:15:46.547Z,34.22
2023-03-22T17:19:46.596Z,36.95
2023-03-22T17:23:46.652Z,34.87
2023-03-22T17:27:46.716Z,34.32
2023-03-22T17:31:53.707Z,38.45
2023-03-22T17:35:47.890Z,36.49
2023-03-22T17:40:27.979Z,38.02
2023-03-22T17:43:48.035Z,37.41
2023-03-22T17:47:49.341Z,40.95
2023-03-22T17:51:47.224Z,40.08
2023-03-22T17:59:47.421Z,41.81
2023-03-22T18:03:47.483Z,40.43
2023-03-22T18:07:58.883Z,39.90
2023-03-22T18:11:48.626Z,40.45
2023-03-22T18:15:47.701Z,37.98
2023-03-22T18:20:07.341Z,38.95
2023-03-22T18:23:48.862Z,40.99
2023-03-22T18:27:47.947Z,39.09
2023-03-22T18:31:48.013Z,38.34
2023-03-22T18:35:48.107Z,39.14
2023-03-22T18:43:49.216Z,41.02
2023-03-22T18:47:48.271Z,42.65
2023-03-22T18:55:54.258Z,41.37
2023-03-22T18:59:50.727Z,42.25
2023-03-22T19:03:48.589Z,43.37
2023-03-22T19:08:02.243Z,42.26
2023-03-22T19:11:49.781Z,43.94
2023-03-22T19:15:50.627Z,45.06
2023-03-22T19:19:48.979Z,43.31
2023-03-22T19:23:49.096Z,42.71
2023-03-22T19:31:49.311Z,45.54
2023-03-22T19:35:49.415Z,43.67
2023-03-22T19:39:52.409Z,44.96
2023-03-22T19:43:50.632Z,46.00
2023-03-22T19:48:02.264Z,43.52
2023-03-22T19:51:50.869Z,45.23
2023-03-22T19:55:49.973Z,46.02
2023-03-22T20:00:11.987Z,44.00
2023-03-22T20:03:51.191Z,46.22
2023-03-22T20:07:50.283Z,44.94
2023-03-22T20:11:50.383Z,41.34
2023-03-22T20:15:50.493Z,44.66
2023-03-22T20:19:50.584Z,44.51
2023-03-22T20:23:50.678Z,43.03
2023-03-22T20:27:57.969Z,43.95
2023-03-22T20:31:51.112Z,44.78
2023-03-22T20:35:51.244Z,44.69
2023-03-22T20:39:51.323Z,43.51
2023-03-22T20:43:51.422Z,43.32
2023-03-22T20:47:51.487Z,42.43
2023-03-22T20:51:51.592Z,42.54
2023-03-22T20:55:51.676Z,43.28
2023-03-22T20:59:51.765Z,42.92
2023-03-22T21:03:51.854Z,43.46
2023-03-22T21:07:51.952Z,42.98
2023-03-22T21:11:52.042Z,42.29
2023-03-22T21:15:52.108Z,42.29
2023-03-22T21:19:52.225Z,42.54
2023-03-22T21:23:52.388Z,40.82
2023-03-22T21:27:52.799Z,42.31
2023-03-22T21:31:52.704Z,42.74
2023-03-22T21:35:52.860Z,42.26
2023-03-22T21:39:53.048Z,42.23
2023-03-22T21:43:53.214Z,40.30
2023-03-22T21:47:53.384Z,42.82
2023-03-22T21:51:53.545Z,41.90
2023-03-22T21:55:53.710Z,40.06
2023-03-22T21:59:53.905Z,40.17
2023-03-22T22:03:54.086Z,40.42
2023-03-22T22:07:54.296Z,41.56
2023-03-22T22:11:54.505Z,41.97
2023-03-22T22:15:54.716Z,40.88
2023-03-22T22:19:54.918Z,42.44
2023-03-22T22:23:55.123Z,40.31
2023-03-22T22:27:55.314Z,42.44
2023-03-22T22:31:55.504Z,41.34
2023-03-22T22:35:55.723Z,42.90
2023-03-22T22:39:55.902Z,41.12
2023-03-22T22:43:56.105Z,39.50
2023-03-22T22:47:56.312Z,40.71
2023-03-22T22:51:56.519Z,40.77
2023-03-22T22:55:57.587Z,40.54
2023-03-22T22:59:56.941Z,40.91
2023-03-22T23:03:57.155Z,41.99
2023-03-22T23:07:57.337Z,40.03
2023-03-22T23:11:57.537Z,40.50
2023-03-22T23:15:57.730Z,39.90
2023-03-22T23:19:57.943Z,40.72
2023-03-22T23:23:58.134Z,40.35
2023-03-22T23:27:58.316Z,39.60
2023-03-22T23:31:58.514Z,42.70
2023-03-22T23:35:58.730Z,38.17
2023-03-22T23:39:58.892Z,39.92
2023-03-22T23:43:59.077Z,39.15
2023-03-22T23:47:59.252Z,39.44
2023-03-22T23:51:59.435Z,36.66
2023-03-22T23:55:59.605Z,38.39
2023-03-22T23:59:59.803Z,38.62
